createdAt,value
2019-04-29T14:53:02.329Z,10.22
2019-04-29T14:55:31.803Z,10.15
2019-04-29T14:58:01.255Z,10.15
2019-04-29T15:00:50.816Z,10.15
2019-04-29T15:03:24.907Z,10.15
2019-04-29T15:05:54.492Z,10.17
2019-04-29T15:08:24.073Z,10.14
2019-04-29T15:10:54.132Z,10.18
2019-04-29T15:13:25.702Z,10.34
2019-04-29T15:16:09.638Z,10.26
2019-04-29T15:18:48.692Z,10.29
2019-04-29T15:21:15.830Z,10.30
2019-04-29T15:23:45.401Z,10.23
2019-04-29T15:26:14.936Z,10.21
2019-04-29T15:28:53.540Z,10.38
2019-04-29T15:31:23.903Z,10.48
2019-04-29T15:33:53.501Z,10.53
2019-04-29T15:36:23.050Z,10.46
2019-04-29T15:39:08.568Z,10.48
2019-04-29T15:41:29.462Z,10.43
2019-04-29T15:44:06.439Z,10.44
2019-04-29T15:46:25.992Z,10.48
2019-04-29T15:48:55.556Z,10.43
2019-04-29T15:51:25.040Z,10.42
2019-04-29T15:53:54.603Z,10.41
2019-04-29T15:56:28.731Z,10.37
2019-04-29T15:58:59.571Z,10.37
2019-04-29T16:01:28.180Z,10.57
2019-04-29T16:03:59.250Z,10.53
2019-04-29T16:06:39.982Z,10.66
2019-04-29T16:09:10.094Z,10.78
2019-04-29T16:11:41.224Z,10.64
2019-04-29T16:14:12.321Z,10.75
2019-04-29T16:16:41.808Z,10.73
2019-04-29T16:19:11.251Z,10.67
2019-04-29T16:21:41.772Z,10.69
2019-04-29T16:26:42.578Z,10.51
2019-04-29T16:29:15.144Z,10.53
2019-04-29T16:31:43.182Z,10.43
2019-04-29T16:34:12.649Z,10.55
2019-04-29T16:39:13.487Z,10.35
2019-04-29T16:41:44.705Z,10.37
2019-04-29T16:44:34.033Z,10.44
2019-04-29T16:46:47.238Z,10.50
2019-04-29T16:49:16.750Z,10.58
2019-04-29T16:51:47.953Z,10.57
2019-04-29T16:54:20.516Z,10.52
2019-04-29T16:56:48.796Z,10.48
2019-04-29T16:59:18.203Z,10.51
2019-04-29T17:01:47.824Z,10.47
2019-04-29T17:04:17.309Z,10.39
2019-04-29T17:09:31.649Z,10.27
2019-04-29T17:12:02.292Z,10.33
2019-04-29T17:14:31.700Z,10.31
2019-04-29T17:17:03.952Z,10.35
2019-04-29T17:19:35.043Z,10.36
2019-04-29T17:24:37.631Z,10.47
2019-04-29T17:27:14.171Z,10.46
2019-04-29T17:29:55.549Z,10.42
2019-04-29T17:32:44.624Z,10.39
2019-04-29T17:35:10.665Z,10.28
2019-04-29T17:35:15.681Z,10.53
2019-04-29T17:35:16.215Z,10.41
2019-04-29T17:35:17.595Z,10.64
2019-04-29T17:35:17.729Z,10.29
2019-04-29T17:37:40.490Z,10.19
2019-04-29T17:40:11.889Z,10.16
2019-04-29T17:42:43.077Z,10.18
2019-04-29T17:45:27.071Z,10.15
2019-04-29T17:47:59.935Z,10.02
2019-04-29T17:50:38.618Z,10.06
2019-04-29T17:53:08.499Z,10.14
2019-04-29T17:55:42.689Z,10.14
2019-04-29T17:58:19.977Z,10.15
2019-04-29T18:00:57.902Z,10.09
2019-04-29T18:03:27.267Z,9.97
2019-04-29T18:05:58.363Z,9.89
2019-04-29T18:08:44.926Z,9.94
2019-04-29T18:11:15.038Z,9.98
2019-04-29T18:13:45.842Z,10.01
2019-04-29T18:16:22.146Z,9.88
2019-04-29T18:18:57.313Z,9.86
2019-04-29T18:21:25.003Z,9.84
2019-04-29T18:23:59.258Z,9.87
2019-04-29T18:26:35.827Z,9.84
2019-04-29T18:29:07.963Z,9.77
2019-04-29T18:31:36.927Z,9.79
2019-04-29T18:34:06.409Z,9.67
2019-04-29T18:36:36.057Z,9.70
2019-04-29T18:39:09.077Z,9.65
2019-04-29T18:41:38.505Z,9.61
2019-04-29T18:44:08.088Z,9.53
2019-04-29T18:46:37.672Z,9.40
2019-04-29T18:49:07.305Z,9.41
2019-04-29T18:51:36.822Z,9.41
2019-04-29T18:54:06.451Z,9.40
2019-04-29T18:56:36.657Z,9.44
2019-04-29T18:59:07.484Z,9.43
2019-04-29T19:01:36.957Z,9.34
2019-04-29T19:04:16.149Z,9.26
2019-04-29T19:06:41.187Z,9.29
2019-04-29T19:09:19.976Z,9.33
2019-04-29T19:11:43.491Z,9.32
2019-04-29T19:14:15.096Z,9.28
2019-04-29T19:16:46.155Z,9.21
2019-04-29T19:19:15.682Z,9.24
2019-04-29T19:21:48.155Z,9.16
2019-04-29T19:24:19.183Z,9.11
2019-04-29T19:26:55.646Z,9.15
2019-04-29T19:29:21.194Z,9.12
2019-04-29T19:31:50.822Z,9.14
2019-04-29T19:34:20.353Z,9.10
2019-04-29T19:36:50.729Z,9.12
2019-04-29T19:39:21.804Z,9.07
2019-04-29T19:41:52.289Z,9.06
2019-04-29T19:44:21.700Z,9.04
2019-04-29T19:46:51.204Z,9.13
2019-04-29T19:49:20.617Z,9.08
2019-04-29T19:51:50.077Z,9.06
2019-04-29T19:54:24.475Z,9.09
2019-04-29T19:56:55.612Z,9.05
2019-04-29T19:59:22.258Z,9.05
2019-04-29T20:02:02.046Z,9.09
2019-04-29T20:04:31.477Z,9.04
2019-04-29T20:07:06.510Z,9.06
2019-04-29T20:09:33.313Z,9.03
2019-04-29T20:12:11.323Z,9.02
2019-04-29T20:14:37.002Z,9.04
2019-04-29T20:17:14.143Z,9.04
2019-04-29T20:19:45.716Z,9.04
2019-04-29T20:22:15.928Z,8.99
2019-04-29T20:24:49.749Z,9.03
2019-04-29T20:27:16.964Z,9.06
2019-04-29T20:29:46.604Z,9.09
2019-04-29T20:32:16.739Z,9.06
2019-04-29T20:34:47.206Z,9.04
2019-04-29T20:37:19.781Z,9.06
2019-04-29T20:39:52.044Z,9.03
2019-04-29T20:42:19.221Z,9.02
2019-04-29T20:44:49.483Z,9.02
2019-04-29T20:47:22.888Z,9.03
2019-04-29T20:49:50.289Z,9.04
2019-04-29T20:52:39.657Z,9.05
2019-04-29T20:55:09.865Z,9.02
2019-04-29T20:57:39.982Z,9.05
2019-04-29T21:00:10.111Z,9.08
2019-04-29T21:02:39.817Z,9.07
2019-04-29T21:05:19.871Z,9.05
2019-04-29T21:07:41.349Z,9.07
2019-04-29T21:10:11.125Z,9.08
2019-04-29T21:12:42.187Z,9.02
2019-04-29T21:15:16.167Z,9.06
2019-04-29T21:17:46.207Z,9.06
2019-04-29T21:20:15.711Z,9.05
2019-04-29T21:22:45.577Z,9.04
2019-04-29T21:25:15.208Z,9.06
2019-04-29T21:27:46.964Z,9.06
2019-04-29T21:30:16.009Z,9.06
2019-04-29T21:32:45.553Z,9.04
2019-04-29T21:35:26.975Z,9.05
2019-04-29T21:38:17.914Z,9.01
2019-04-29T21:40:49.385Z,9.04
2019-04-29T21:43:20.646Z,9.00
2019-04-29T21:45:50.175Z,9.02
2019-04-29T21:48:25.649Z,9.02
2019-04-29T21:50:50.787Z,9.05
2019-04-29T21:53:20.454Z,9.00
2019-04-29T21:55:49.941Z,8.95
2019-04-29T21:58:19.548Z,8.95
2019-04-29T22:00:50.015Z,8.95
2019-04-29T22:03:19.828Z,8.90
2019-04-29T22:05:53.468Z,8.90
2019-04-29T22:08:27.163Z,8.87
2019-04-29T22:11:04.387Z,8.85
2019-04-29T22:13:30.647Z,8.81
2019-04-29T22:16:00.211Z,8.82
2019-04-29T22:18:29.847Z,8.82
2019-04-29T22:20:59.630Z,8.80
2019-04-29T22:23:29.110Z,8.82
2019-04-29T22:25:59.015Z,8.80
2019-04-29T22:28:28.555Z,8.78
2019-04-29T22:30:58.169Z,8.75
2019-04-29T22:33:29.660Z,8.72
2019-04-29T22:35:59.020Z,8.69
2019-04-29T22:38:28.758Z,8.70
2019-04-29T22:40:59.852Z,8.69
2019-04-29T22:43:33.821Z,8.69
2019-04-29T22:46:09.512Z,8.68
2019-04-29T22:48:40.544Z,8.69
2019-04-29T22:51:10.145Z,8.64
2019-04-29T22:53:39.992Z,8.63
2019-04-29T22:56:14.182Z,8.64
2019-04-29T22:58:43.965Z,8.61
2019-04-29T23:01:13.389Z,8.61
2019-04-29T23:03:42.843Z,8.60
2019-04-29T23:06:12.325Z,8.57
2019-04-29T23:08:41.853Z,8.60
2019-04-29T23:11:11.312Z,8.58
2019-04-29T23:13:40.762Z,8.57
2019-04-29T23:16:10.353Z,8.52
2019-04-29T23:18:42.294Z,8.50
2019-04-29T23:21:16.493Z,8.51
2019-04-29T23:23:59.581Z,8.53
2019-04-29T23:26:29.180Z,8.52
2019-04-29T23:28:59.473Z,8.52
2019-04-29T23:31:29.847Z,8.52
2019-04-29T23:33:59.366Z,8.51
2019-04-29T23:36:28.885Z,8.52
2019-04-29T23:38:58.346Z,8.49
2019-04-29T23:41:32.997Z,8.45
2019-04-29T23:44:00.001Z,8.45
2019-04-29T23:46:34.183Z,8.45
2019-04-29T23:49:03.179Z,8.46
2019-04-29T23:51:36.308Z,8.50
2019-04-29T23:54:07.874Z,8.52
2019-04-29T23:56:38.570Z,8.50
2019-04-29T23:59:18.852Z,8.45
